createdAt,value
2018-12-03T00:00:48.000Z,98761
2018-12-03T00:01:48.000Z,98761
2018-12-03T00:03:48.000Z,98757
2018-12-03T00:05:48.000Z,98760
2018-12-03T00:07:48.000Z,98756
2018-12-03T00:09:32.000Z,98751
2018-12-03T00:10:48.000Z,98746
2018-12-03T00:12:32.000Z,98740
2018-12-03T00:13:48.000Z,98741
2018-12-03T00:14:48.000Z,98743
2018-12-03T00:16:48.000Z,98736
2018-12-03T00:17:48.000Z,98740
2018-12-03T00:19:48.000Z,98732
2018-12-03T00:21:48.000Z,98739
2018-12-03T00:22:48.000Z,98735
2018-12-03T00:24:32.000Z,98731
2018-12-03T00:26:48.000Z,98729
2018-12-03T00:27:48.000Z,98728
2018-12-03T00:29:47.000Z,98731
2018-12-03T00:31:47.000Z,98733
2018-12-03T00:33:47.000Z,98738
2018-12-03T00:34:47.000Z,98745
2018-12-03T00:36:47.000Z,98741
2018-12-03T00:38:47.000Z,98755
2018-12-03T00:40:32.000Z,98744
2018-12-03T00:41:47.000Z,98736
2018-12-03T00:42:47.000Z,98730
2018-12-03T00:43:47.000Z,98734
2018-12-03T00:45:47.000Z,98735
2018-12-03T00:47:47.000Z,98742
2018-12-03T00:49:47.000Z,98740
2018-12-03T00:51:47.000Z,98742
2018-12-03T00:53:47.000Z,98734
2018-12-03T00:55:47.000Z,98734
2018-12-03T00:57:32.000Z,98733
2018-12-03T00:58:47.000Z,98729
2018-12-03T01:00:47.000Z,98726
2018-12-03T01:01:47.000Z,98723
2018-12-03T01:03:32.000Z,98719
2018-12-03T01:04:47.000Z,98718
2018-12-03T01:06:47.000Z,98730
2018-12-03T01:08:32.000Z,98733
2018-12-03T01:09:47.000Z,98733
2018-12-03T01:10:47.000Z,98739
2018-12-03T01:12:32.000Z,98735
2018-12-03T01:13:47.000Z,98740
2018-12-03T01:14:47.000Z,98741
2018-12-03T01:15:47.000Z,98738
2018-12-03T01:17:47.000Z,98753
2018-12-03T01:18:47.000Z,98748
2018-12-03T01:20:47.000Z,98753
2018-12-03T01:21:47.000Z,98757
2018-12-03T01:23:47.000Z,98759
2018-12-03T01:24:47.000Z,98765
2018-12-03T01:25:47.000Z,98766
2018-12-03T01:27:32.000Z,98765
2018-12-03T01:28:47.000Z,98764
2018-12-03T01:29:47.000Z,98769
2018-12-03T01:30:47.000Z,98767
2018-12-03T01:32:32.000Z,98772
2018-12-03T01:33:48.000Z,98775
2018-12-03T01:35:48.000Z,98768
2018-12-03T01:36:48.000Z,98771
2018-12-03T01:37:48.000Z,98767
2018-12-03T01:39:48.000Z,98765
2018-12-03T01:41:48.000Z,98766
2018-12-03T01:43:48.000Z,98768
2018-12-03T01:44:48.000Z,98763
2018-12-03T01:45:48.000Z,98765
2018-12-03T01:46:48.000Z,98768
2018-12-03T01:48:48.000Z,98766
2018-12-03T01:50:48.000Z,98766
2018-12-03T01:52:48.000Z,98774
2018-12-03T01:53:48.000Z,98772
2018-12-03T01:55:32.000Z,98769
2018-12-03T01:57:48.000Z,98771
2018-12-03T01:58:48.000Z,98776
2018-12-03T02:00:32.000Z,98773
2018-12-03T02:01:48.000Z,98773
2018-12-03T02:02:48.000Z,98768
2018-12-03T02:04:48.000Z,98765
2018-12-03T02:06:48.000Z,98772
2018-12-03T02:07:48.000Z,98771
2018-12-03T02:09:48.000Z,98769
2018-12-03T02:11:48.000Z,98759
2018-12-03T02:12:48.000Z,98763
2018-12-03T02:14:48.000Z,98760
2018-12-03T02:15:48.000Z,98751
2018-12-03T02:17:48.000Z,98751
2018-12-03T02:19:48.000Z,98737
2018-12-03T02:21:48.000Z,98734
2018-12-03T02:23:48.000Z,98741
2018-12-03T02:24:48.000Z,98739
2018-12-03T02:25:48.000Z,98739
2018-12-03T02:27:48.000Z,98740
2018-12-03T02:29:48.000Z,98731
2018-12-03T02:31:32.000Z,98735
2018-12-03T02:33:48.000Z,98735
2018-12-03T02:35:48.000Z,98729
2018-12-03T02:37:48.000Z,98738
2018-12-03T02:39:48.000Z,98744
2018-12-03T02:41:17.000Z,98736
2018-12-03T02:42:48.000Z,98740
2018-12-03T02:44:48.000Z,98732
2018-12-03T02:46:48.000Z,98733
2018-12-03T02:48:48.000Z,98718
2018-12-03T02:49:48.000Z,98720
2018-12-03T02:51:32.000Z,98711
2018-12-03T02:52:48.000Z,98712
2018-12-03T02:53:48.000Z,98704
2018-12-03T02:54:48.000Z,98707
2018-12-03T02:56:48.000Z,98708
2018-12-03T02:58:48.000Z,98699
2018-12-03T03:00:48.000Z,98690
2018-12-03T03:02:48.000Z,98687
2018-12-03T03:04:48.000Z,98686
2018-12-03T03:05:48.000Z,98692
2018-12-03T03:07:48.000Z,98691
2018-12-03T03:09:48.000Z,98698
2018-12-03T03:11:32.000Z,98696
2018-12-03T03:12:48.000Z,98709
2018-12-03T03:14:48.000Z,98705
2018-12-03T03:16:48.000Z,98698
2018-12-03T03:18:48.000Z,98708
2018-12-03T03:20:48.000Z,98707
2018-12-03T03:22:48.000Z,98714
2018-12-03T03:23:48.000Z,98716
2018-12-03T03:25:48.000Z,98709
2018-12-03T03:27:32.000Z,98702
2018-12-03T03:28:48.000Z,98703
2018-12-03T03:30:32.000Z,98706
2018-12-03T03:31:48.000Z,98704
2018-12-03T03:33:33.000Z,98705
2018-12-03T03:35:48.000Z,98698
2018-12-03T03:36:48.000Z,98701
2018-12-03T03:38:48.000Z,98709
2018-12-03T03:40:32.000Z,98695
2018-12-03T03:41:48.000Z,98695
2018-12-03T03:42:48.000Z,98696
2018-12-03T03:44:48.000Z,98692
2018-12-03T03:46:48.000Z,98682
2018-12-03T03:48:48.000Z,98676
2018-12-03T03:50:48.000Z,98685
2018-12-03T03:51:48.000Z,98691
2018-12-03T03:52:48.000Z,98687
2018-12-03T03:54:48.000Z,98686
2018-12-03T03:56:48.000Z,98684
2018-12-03T03:57:48.000Z,98686
2018-12-03T03:59:33.000Z,98690
2018-12-03T04:00:48.000Z,98694
2018-12-03T04:02:17.000Z,98700
2018-12-03T04:03:48.000Z,98708
2018-12-03T04:05:32.000Z,98711
2018-12-03T04:06:48.000Z,98721
2018-12-03T04:08:48.000Z,98713
2018-12-03T04:10:48.000Z,98725
2018-12-03T04:12:48.000Z,98725
2018-12-03T04:14:48.000Z,98719
2018-12-03T04:15:48.000Z,98724
2018-12-03T04:17:32.000Z,98718
2018-12-03T04:18:48.000Z,98719
2018-12-03T04:20:48.000Z,98720
2018-12-03T04:22:48.000Z,98733
2018-12-03T04:24:48.000Z,98721
2018-12-03T04:26:48.000Z,98726
2018-12-03T04:28:48.000Z,98717
2018-12-03T04:30:48.000Z,98722
2018-12-03T04:32:48.000Z,98721
2018-12-03T04:34:48.000Z,98729
2018-12-03T04:36:48.000Z,98732
2018-12-03T04:37:48.000Z,98733
2018-12-03T04:39:48.000Z,98725
2018-12-03T04:41:48.000Z,98740
2018-12-03T04:43:32.000Z,98730
2018-12-03T04:44:48.000Z,98720
2018-12-03T04:46:33.000Z,98723
2018-12-03T04:47:48.000Z,98729
2018-12-03T04:48:48.000Z,98724
2018-12-03T04:50:48.000Z,98723
2018-12-03T04:52:48.000Z,98727
2018-12-03T04:54:48.000Z,98735
2018-12-03T04:55:48.000Z,98734
2018-12-03T04:57:48.000Z,98732
2018-12-03T04:59:48.000Z,98730
2018-12-03T05:01:48.000Z,98740
2018-12-03T05:03:48.000Z,98746
2018-12-03T05:05:33.000Z,98743
2018-12-03T05:06:48.000Z,98754
2018-12-03T05:08:48.000Z,98743
2018-12-03T05:10:48.000Z,98749
2018-12-03T05:12:48.000Z,98756
2018-12-03T05:13:48.000Z,98760
2018-12-03T05:14:48.000Z,98756
2018-12-03T05:16:48.000Z,98768
2018-12-03T05:18:48.000Z,98766
2018-12-03T05:20:33.000Z,98763
2018-12-03T05:21:48.000Z,98762
2018-12-03T05:22:48.000Z,98756
2018-12-03T05:24:48.000Z,98754
2018-12-03T05:26:48.000Z,98749
2018-12-03T05:27:48.000Z,98749
2018-12-03T05:29:48.000Z,98752
2018-12-03T05:31:48.000Z,98753
2018-12-03T05:32:48.000Z,98745
2018-12-03T05:34:48.000Z,98746
2018-12-03T05:35:48.000Z,98753
2018-12-03T05:37:48.000Z,98758
2018-12-03T05:39:48.000Z,98754
2018-12-03T05:40:48.000Z,98759
2018-12-03T05:41:48.000Z,98759
2018-12-03T05:43:48.000Z,98756
2018-12-03T05:45:48.000Z,98769
2018-12-03T05:47:48.000Z,98756
2018-12-03T05:48:48.000Z,98759
2018-12-03T05:50:48.000Z,98762
2018-12-03T05:51:48.000Z,98758
2018-12-03T05:53:48.000Z,98756
2018-12-03T05:55:48.000Z,98771
2018-12-03T05:56:48.000Z,98765
2018-12-03T05:58:32.000Z,98764
2018-12-03T06:02:19.000Z,98778
2018-12-03T06:04:19.000Z,98768
2018-12-03T06:05:19.000Z,98781
2018-12-03T06:07:19.000Z,98767
2018-12-03T06:09:19.000Z,98768
2018-12-03T06:10:19.000Z,98771
2018-12-03T06:12:19.000Z,98765
2018-12-03T06:13:19.000Z,98766
2018-12-03T06:15:19.000Z,98769
2018-12-03T06:17:19.000Z,98775
2018-12-03T06:19:19.000Z,98772
2018-12-03T06:20:19.000Z,98771
2018-12-03T06:22:03.000Z,98773
2018-12-03T06:23:19.000Z,98776
2018-12-03T06:24:19.000Z,98776
2018-12-03T06:26:19.000Z,98774
2018-12-03T06:28:03.000Z,98781
2018-12-03T06:29:19.000Z,98777
2018-12-03T06:30:48.000Z,98778
2018-12-03T06:32:19.000Z,98779
2018-12-03T06:33:19.000Z,98778
2018-12-03T06:35:19.000Z,98778
2018-12-03T06:37:19.000Z,98776
2018-12-03T06:38:19.000Z,98780
2018-12-03T06:40:03.000Z,98780
2018-12-03T06:42:19.000Z,98778
2018-12-03T06:43:19.000Z,98782
2018-12-03T06:45:19.000Z,98779
2018-12-03T06:47:03.000Z,98790
2018-12-03T06:48:19.000Z,98786
2018-12-03T06:50:03.000Z,98780
2018-12-03T06:51:18.000Z,98783
2018-12-03T06:53:18.000Z,98781
2018-12-03T06:54:18.000Z,98787
2018-12-03T06:56:03.000Z,98786
2018-12-03T06:57:18.000Z,98792
2018-12-03T06:59:18.000Z,98791
2018-12-03T07:01:18.000Z,98789
2018-12-03T07:02:18.000Z,98794
2018-12-03T07:03:18.000Z,98789
2018-12-03T07:05:18.000Z,98782
2018-12-03T07:07:18.000Z,98787
2018-12-03T07:09:18.000Z,98794
2018-12-03T07:11:18.000Z,98793
2018-12-03T07:12:18.000Z,98797
2018-12-03T07:14:18.000Z,98799
2018-12-03T07:16:03.000Z,98806
2018-12-03T07:17:18.000Z,98811
2018-12-03T07:19:18.000Z,98806
2018-12-03T07:20:18.000Z,98817
2018-12-03T07:22:18.000Z,98819
2018-12-03T07:23:18.000Z,98825
2018-12-03T07:25:03.000Z,98840
2018-12-03T07:26:18.000Z,98829
2018-12-03T07:27:18.000Z,98832
2018-12-03T07:29:18.000Z,98827
2018-12-03T07:31:03.000Z,98824
2018-12-03T07:32:18.000Z,98824
2018-12-03T07:33:18.000Z,98819
2018-12-03T07:35:03.000Z,98822
2018-12-03T07:36:18.000Z,98815
2018-12-03T07:38:03.000Z,98823
2018-12-03T07:39:18.000Z,98816
2018-12-03T07:41:18.000Z,98832
2018-12-03T07:42:18.000Z,98818
2018-12-03T07:44:18.000Z,98826
2018-12-03T07:46:18.000Z,98823
2018-12-03T07:47:18.000Z,98828
2018-12-03T07:48:18.000Z,98833
2018-12-03T07:50:18.000Z,98831
2018-12-03T07:52:03.000Z,98839
2018-12-03T07:53:18.000Z,98841
2018-12-03T07:55:18.000Z,98846
2018-12-03T07:57:18.000Z,98838
2018-12-03T07:58:18.000Z,98843
2018-12-03T07:59:48.000Z,98836
2018-12-03T08:01:18.000Z,98833
2018-12-03T08:03:18.000Z,98843
2018-12-03T08:05:18.000Z,98850
2018-12-03T08:07:03.000Z,98847
2018-12-03T08:08:18.000Z,98856
2018-12-03T08:09:18.000Z,98846
2018-12-03T08:11:18.000Z,98843
2018-12-03T08:13:18.000Z,98848
2018-12-03T08:14:18.000Z,98847
2018-12-03T08:16:18.000Z,98852
2018-12-03T08:17:18.000Z,98852
2018-12-03T08:19:18.000Z,98855
2018-12-03T08:20:18.000Z,98848
2018-12-03T08:21:18.000Z,98847
2018-12-03T08:23:18.000Z,98849
2018-12-03T08:25:18.000Z,98852
2018-12-03T08:27:03.000Z,98846
2018-12-03T08:28:18.000Z,98853
2018-12-03T08:30:18.000Z,98857
2018-12-03T08:32:18.000Z,98861
2018-12-03T08:33:18.000Z,98857
2018-12-03T08:35:18.000Z,98852
2018-12-03T08:36:18.000Z,98855
2018-12-03T08:38:18.000Z,98848
2018-12-03T08:40:18.000Z,98852
2018-12-03T08:41:18.000Z,98847
2018-12-03T08:43:18.000Z,98845
2018-12-03T08:44:18.000Z,98846
2018-12-03T08:46:18.000Z,98856
2018-12-03T08:48:18.000Z,98858
2018-12-03T08:50:18.000Z,98861
2018-12-03T08:52:18.000Z,98858
2018-12-03T08:53:18.000Z,98868
2018-12-03T08:55:18.000Z,98865
2018-12-03T08:56:18.000Z,98867
2018-12-03T08:57:18.000Z,98864
2018-12-03T08:59:03.000Z,98864
2018-12-03T09:01:19.000Z,98867
2018-12-03T09:02:19.000Z,98867
2018-12-03T09:03:19.000Z,98873
2018-12-03T09:05:19.000Z,98860
2018-12-03T09:06:48.000Z,98861
2018-12-03T09:08:19.000Z,98867
2018-12-03T09:10:19.000Z,98873
2018-12-03T09:11:19.000Z,98865
2018-12-03T09:12:19.000Z,98870
2018-12-03T09:14:19.000Z,98869
2018-12-03T09:15:19.000Z,98866
2018-12-03T09:17:19.000Z,98877
2018-12-03T09:19:03.000Z,98878
2018-12-03T09:20:19.000Z,98865
2018-12-03T09:22:19.000Z,98871
2018-12-03T09:23:19.000Z,98872
2018-12-03T09:25:19.000Z,98865
2018-12-03T09:26:19.000Z,98870
2018-12-03T09:28:19.000Z,98869
2018-12-03T09:30:19.000Z,98867
2018-12-03T09:32:19.000Z,98874
2018-12-03T09:34:19.000Z,98864
2018-12-03T09:36:03.000Z,98866
2018-12-03T09:37:19.000Z,98860
2018-12-03T09:38:19.000Z,98875
2018-12-03T09:40:19.000Z,98877
2018-12-03T09:42:03.000Z,98877
2018-12-03T09:43:19.000Z,98875
2018-12-03T09:45:19.000Z,98870
2018-12-03T09:47:19.000Z,98880
2018-12-03T09:49:19.000Z,98883
2018-12-03T09:50:19.000Z,98885
2018-12-03T09:52:19.000Z,98893
2018-12-03T09:54:19.000Z,98889
2018-12-03T09:56:19.000Z,98888
2018-12-03T09:58:19.000Z,98882
2018-12-03T10:00:19.000Z,98881
2018-12-03T10:02:19.000Z,98880
2018-12-03T10:04:19.000Z,98876
2018-12-03T10:06:19.000Z,98873
2018-12-03T10:08:03.000Z,98873
2018-12-03T10:09:19.000Z,98872
2018-12-03T10:11:19.000Z,98878
2018-12-03T10:13:19.000Z,98872
2018-12-03T10:15:19.000Z,98866
2018-12-03T10:17:19.000Z,98869
2018-12-03T10:19:19.000Z,98866
2018-12-03T10:21:19.000Z,98859
2018-12-03T10:23:03.000Z,98864
2018-12-03T10:24:19.000Z,98859
2018-12-03T10:25:19.000Z,98866
2018-12-03T10:27:03.000Z,98862
2018-12-03T10:28:19.000Z,98865
2018-12-03T10:29:19.000Z,98853
2018-12-03T10:31:03.000Z,98847
2018-12-03T10:32:19.000Z,98851
2018-12-03T10:33:19.000Z,98851
2018-12-03T10:35:19.000Z,98859
2018-12-03T10:37:04.000Z,98849
2018-12-03T10:38:19.000Z,98854
2018-12-03T10:40:19.000Z,98850
2018-12-03T10:42:19.000Z,98848
2018-12-03T10:44:03.000Z,98843
2018-12-03T10:45:19.000Z,98843
2018-12-03T10:47:19.000Z,98844
2018-12-03T10:48:19.000Z,98839
2018-12-03T10:50:03.000Z,98835
2018-12-03T10:51:19.000Z,98844
2018-12-03T10:52:19.000Z,98831
2018-12-03T10:54:19.000Z,98819
2018-12-03T10:56:19.000Z,98824
2018-12-03T10:58:19.000Z,98838
2018-12-03T11:00:19.000Z,98837
2018-12-03T11:02:19.000Z,98833
2018-12-03T11:03:19.000Z,98835
2018-12-03T11:05:19.000Z,98839
2018-12-03T11:07:18.000Z,98840
2018-12-03T11:09:18.000Z,98834
2018-12-03T11:10:18.000Z,98837
2018-12-03T11:12:18.000Z,98827
2018-12-03T11:14:18.000Z,98825
2018-12-03T11:16:18.000Z,98819
2018-12-03T11:18:18.000Z,98818
2018-12-03T11:20:18.000Z,98818
2018-12-03T11:21:18.000Z,98812
2018-12-03T11:23:03.000Z,98809
2018-12-03T11:25:18.000Z,98807
2018-12-03T11:27:18.000Z,98813
2018-12-03T11:28:18.000Z,98807
2018-12-03T11:30:18.000Z,98814
2018-12-03T11:31:18.000Z,98817
2018-12-03T11:32:18.000Z,98819
2018-12-03T11:34:18.000Z,98819
2018-12-03T11:36:18.000Z,98812
2018-12-03T11:38:18.000Z,98818
2018-12-03T11:40:18.000Z,98811
2018-12-03T11:42:18.000Z,98809
2018-12-03T11:44:18.000Z,98803
2018-12-03T11:45:18.000Z,98805
2018-12-03T11:47:18.000Z,98803
2018-12-03T11:49:18.000Z,98792
2018-12-03T11:51:03.000Z,98799
2018-12-03T11:52:18.000Z,98797
2018-12-03T11:54:18.000Z,98795
2018-12-03T11:56:18.000Z,98797
2018-12-03T11:58:18.000Z,98795
2018-12-03T11:59:18.000Z,98797
2018-12-03T12:01:18.000Z,98787
2018-12-03T12:03:18.000Z,98787
2018-12-03T12:04:18.000Z,98789
2018-12-03T12:06:18.000Z,98781
2018-12-03T12:07:18.000Z,98778
2018-12-03T12:09:18.000Z,98782
2018-12-03T12:11:03.000Z,98788
2018-12-03T12:12:18.000Z,98777
2018-12-03T12:13:18.000Z,98790
2018-12-03T12:15:03.000Z,98794
2018-12-03T12:16:18.000Z,98785
2018-12-03T12:18:18.000Z,98783
2018-12-03T12:20:03.000Z,98791
2018-12-03T12:21:18.000Z,98790
2018-12-03T12:22:18.000Z,98783
2018-12-03T12:23:18.000Z,98781
2018-12-03T12:25:18.000Z,98778
2018-12-03T12:27:18.000Z,98772
2018-12-03T12:29:03.000Z,98775
2018-12-03T12:30:18.000Z,98774
2018-12-03T12:31:18.000Z,98777
2018-12-03T12:33:18.000Z,98778
2018-12-03T12:34:48.000Z,98769
2018-12-03T12:36:18.000Z,98767
2018-12-03T12:37:18.000Z,98756
2018-12-03T12:38:18.000Z,98767
2018-12-03T12:40:18.000Z,98754
2018-12-03T12:41:18.000Z,98756
2018-12-03T12:42:18.000Z,98755
2018-12-03T12:44:18.000Z,98755
2018-12-03T12:46:18.000Z,98757
2018-12-03T12:48:18.000Z,98749
2018-12-03T12:50:18.000Z,98749
2018-12-03T12:51:48.000Z,98749
2018-12-03T12:53:18.000Z,98746
2018-12-03T12:54:18.000Z,98754
2018-12-03T12:56:18.000Z,98746
2018-12-03T12:58:03.000Z,98740
2018-12-03T12:59:18.000Z,98742
2018-12-03T13:01:03.000Z,98742
2018-12-03T13:02:18.000Z,98745
2018-12-03T13:04:18.000Z,98742
2018-12-03T13:06:18.000Z,98748
2018-12-03T13:07:18.000Z,98744
2018-12-03T13:09:18.000Z,98736
2018-12-03T13:11:18.000Z,98744
2018-12-03T13:13:18.000Z,98737
2018-12-03T13:15:18.000Z,98723
2018-12-03T13:16:18.000Z,98724
2018-12-03T13:18:18.000Z,98721
2018-12-03T13:20:19.000Z,98721
2018-12-03T13:22:18.000Z,98718
2018-12-03T13:24:18.000Z,98719
2018-12-03T13:26:18.000Z,98715
2018-12-03T13:28:18.000Z,98710
2018-12-03T13:30:18.000Z,98714
2018-12-03T13:32:18.000Z,98713
2018-12-03T13:34:03.000Z,98706
2018-12-03T13:35:18.000Z,98714
2018-12-03T13:36:18.000Z,98714
2018-12-03T13:38:18.000Z,98713
2018-12-03T13:39:49.000Z,98711
2018-12-03T14:22:54.000Z,98692
2018-12-03T14:24:25.000Z,98698
2018-12-03T14:25:40.000Z,98704
2018-12-03T14:27:25.000Z,98697
2018-12-03T14:28:40.000Z,98700
2018-12-03T14:30:40.000Z,98686
2018-12-03T14:32:40.000Z,98693
2018-12-03T14:34:25.000Z,98696
2018-12-03T14:36:40.000Z,98693
2018-12-03T14:37:40.000Z,98691
2018-12-03T14:39:40.000Z,98695
2018-12-03T14:41:40.000Z,98693
2018-12-03T14:42:40.000Z,98692
2018-12-03T14:44:40.000Z,98692
2018-12-03T14:46:40.000Z,98707
2018-12-03T14:48:40.000Z,98700
2018-12-03T14:50:40.000Z,98698
2018-12-03T14:52:25.000Z,98692
2018-12-03T14:54:40.000Z,98687
2018-12-03T14:55:40.000Z,98689
2018-12-03T14:57:40.000Z,98681
2018-12-03T14:58:40.000Z,98688
2018-12-03T15:00:40.000Z,98687
2018-12-03T15:01:40.000Z,98692
2018-12-03T15:03:40.000Z,98695
2018-12-03T15:04:40.000Z,98699
2018-12-03T15:06:40.000Z,98695
2018-12-03T15:08:40.000Z,98694
2018-12-03T15:10:40.000Z,98703
2018-12-03T15:12:40.000Z,98685
2018-12-03T15:13:40.000Z,98696
2018-12-03T15:15:40.000Z,98687
2018-12-03T15:16:40.000Z,98685
2018-12-03T15:18:40.000Z,98689
2018-12-03T15:20:40.000Z,98678
2018-12-03T15:21:40.000Z,98690
2018-12-03T15:23:40.000Z,98693
2018-12-03T15:25:40.000Z,98687
2018-12-03T15:27:25.000Z,98691
2018-12-03T15:29:40.000Z,98689
2018-12-03T15:30:40.000Z,98697
2018-12-03T15:32:40.000Z,98682
2018-12-03T15:33:40.000Z,98677
2018-12-03T15:35:25.000Z,98700
2018-12-03T15:36:40.000Z,98704
2018-12-03T15:38:40.000Z,98703
2018-12-03T15:39:40.000Z,98693
2018-12-03T15:40:40.000Z,98691
2018-12-03T15:42:40.000Z,98699
2018-12-03T15:44:40.000Z,98690
2018-12-03T15:45:40.000Z,98697
2018-12-03T15:47:40.000Z,98693
2018-12-03T15:49:40.000Z,98687
2018-12-03T15:50:40.000Z,98686
2018-12-03T15:51:40.000Z,98697
2018-12-03T15:53:40.000Z,98691
2018-12-03T15:54:40.000Z,98692
2018-12-03T15:56:40.000Z,98686
2018-12-03T15:57:40.000Z,98682
2018-12-03T15:59:40.000Z,98684
2018-12-03T16:01:10.000Z,98682
2018-12-03T16:02:40.000Z,98691
2018-12-03T16:03:40.000Z,98692
2018-12-03T16:05:25.000Z,98694
2018-12-03T16:06:40.000Z,98691
2018-12-03T16:08:40.000Z,98693
2018-12-03T16:10:40.000Z,98687
2018-12-03T16:12:40.000Z,98691
2018-12-03T16:14:25.000Z,98696
2018-12-03T16:15:40.000Z,98696
2018-12-03T16:17:25.000Z,98694
2018-12-03T16:18:40.000Z,98695
2018-12-03T16:20:40.000Z,98691
2018-12-03T16:21:40.000Z,98696
2018-12-03T16:23:40.000Z,98693
2018-12-03T16:24:40.000Z,98695
2018-12-03T16:26:09.000Z,98686
2018-12-03T16:27:40.000Z,98687
2018-12-03T16:29:09.000Z,98689
2018-12-03T16:30:40.000Z,98679
2018-12-03T16:31:40.000Z,98691
2018-12-03T16:33:40.000Z,98686
2018-12-03T16:35:40.000Z,98673
2018-12-03T16:37:24.000Z,98682
2018-12-03T16:38:40.000Z,98683
2018-12-03T16:39:40.000Z,98681
2018-12-03T16:41:40.000Z,98684
2018-12-03T16:43:40.000Z,98677
2018-12-03T16:45:40.000Z,98671
2018-12-03T16:47:40.000Z,98673
2018-12-03T16:49:40.000Z,98676
2018-12-03T16:50:40.000Z,98688
2018-12-03T16:51:40.000Z,98684
2018-12-03T16:53:40.000Z,98680
2018-12-03T16:55:40.000Z,98676
2018-12-03T16:57:24.000Z,98685
2018-12-03T16:58:40.000Z,98686
2018-12-03T17:00:40.000Z,98686
2018-12-03T17:01:40.000Z,98692
2018-12-03T17:03:24.000Z,98697
2018-12-03T17:04:40.000Z,98684
2018-12-03T17:06:40.000Z,98682
2018-12-03T17:08:25.000Z,98687
2018-12-03T17:10:40.000Z,98692
2018-12-03T17:12:40.000Z,98704
2018-12-03T17:14:40.000Z,98691
2018-12-03T17:15:40.000Z,98690
2018-12-03T17:17:24.000Z,98679
2018-12-03T17:18:40.000Z,98682
2018-12-03T17:20:40.000Z,98690
2018-12-03T17:22:40.000Z,98689
2018-12-03T17:24:09.000Z,98688
2018-12-03T17:25:40.000Z,98679
2018-12-03T17:27:40.000Z,98678
2018-12-03T17:29:40.000Z,98681
2018-12-03T17:31:24.000Z,98689
2018-12-03T17:32:40.000Z,98699
2018-12-03T17:33:40.000Z,98689
2018-12-03T17:35:40.000Z,98693
2018-12-03T17:37:40.000Z,98699
2018-12-03T17:38:40.000Z,98696
2018-12-03T17:40:40.000Z,98694
2018-12-03T17:41:40.000Z,98693
2018-12-03T17:43:40.000Z,98693
2018-12-03T17:45:24.000Z,98693
2018-12-03T17:46:24.000Z,98695
2018-12-03T17:47:40.000Z,98698
2018-12-03T17:49:40.000Z,98703
2018-12-03T17:51:40.000Z,98703
2018-12-03T17:52:40.000Z,98705
2018-12-03T17:54:24.000Z,98710
2018-12-03T17:55:40.000Z,98705
2018-12-03T17:57:40.000Z,98708
2018-12-03T17:59:40.000Z,98705
2018-12-03T18:01:24.000Z,98698
2018-12-03T18:02:25.000Z,98644
2018-12-03T18:03:40.000Z,98703
2018-12-03T18:05:40.000Z,98708
2018-12-03T18:07:40.000Z,98703
2018-12-03T18:09:40.000Z,98702
2018-12-03T18:11:40.000Z,98698
2018-12-03T18:13:40.000Z,98705
2018-12-03T18:15:40.000Z,98710
2018-12-03T18:16:40.000Z,98709
2018-12-03T18:18:40.000Z,98701
2018-12-03T18:19:40.000Z,98707
2018-12-03T18:21:40.000Z,98708
2018-12-03T18:22:40.000Z,98707
2018-12-03T18:23:40.000Z,98705
2018-12-03T18:25:40.000Z,98709
2018-12-03T18:26:40.000Z,98711
2018-12-03T18:27:40.000Z,98713
2018-12-03T18:29:40.000Z,98712
2018-12-03T18:31:40.000Z,98720
2018-12-03T18:33:40.000Z,98725
2018-12-03T18:34:40.000Z,98724
2018-12-03T18:35:40.000Z,98723
2018-12-03T18:37:40.000Z,98733
2018-12-03T18:39:40.000Z,98734
2018-12-03T18:41:40.000Z,98740
2018-12-03T18:43:40.000Z,98743
2018-12-03T18:45:40.000Z,98738
2018-12-03T18:47:24.000Z,98729
2018-12-03T18:48:40.000Z,98728
2018-12-03T18:49:40.000Z,98728
2018-12-03T18:51:40.000Z,98731
2018-12-03T18:53:40.000Z,98742
2018-12-03T18:55:40.000Z,98739
2018-12-03T18:57:24.000Z,98731
2018-12-03T18:58:40.000Z,98737
2018-12-03T19:00:40.000Z,98739
2018-12-03T19:02:40.000Z,98736
2018-12-03T19:03:40.000Z,98742
2018-12-03T19:05:40.000Z,98736
2018-12-03T19:06:40.000Z,98739
2018-12-03T19:08:40.000Z,98741
2018-12-03T19:10:40.000Z,98735
2018-12-03T19:11:40.000Z,98740
2018-12-03T19:13:40.000Z,98737
2018-12-03T19:15:09.000Z,98735
2018-12-03T19:16:40.000Z,98739
2018-12-03T19:18:40.000Z,98746
2018-12-03T19:19:40.000Z,98742
2018-12-03T19:21:24.000Z,98742
2018-12-03T19:22:40.000Z,98741
2018-12-03T19:24:24.000Z,98748
2018-12-03T19:25:40.000Z,98755
2018-12-03T19:27:40.000Z,98756
2018-12-03T19:29:40.000Z,98754
2018-12-03T19:30:40.000Z,98761
2018-12-03T19:32:40.000Z,98767
2018-12-03T19:34:40.000Z,98776
2018-12-03T19:36:40.000Z,98770
2018-12-03T19:38:40.000Z,98775
2018-12-03T19:39:40.000Z,98774
2018-12-03T19:40:40.000Z,98773
2018-12-03T19:41:40.000Z,98763
2018-12-03T19:43:40.000Z,98772
2018-12-03T19:45:40.000Z,98783
2018-12-03T19:47:40.000Z,98782
2018-12-03T19:49:40.000Z,98780
2018-12-03T19:51:40.000Z,98784
2018-12-03T19:53:25.000Z,98788
2018-12-03T19:54:40.000Z,98794
2018-12-03T19:56:40.000Z,98796
2018-12-03T19:58:40.000Z,98798
2018-12-03T20:00:40.000Z,98805
2018-12-03T20:01:40.000Z,98804
2018-12-03T20:05:37.000Z,98804
2018-12-03T20:07:37.000Z,98807
2018-12-03T20:08:37.000Z,98807
2018-12-03T20:10:22.000Z,98810
2018-12-03T20:11:37.000Z,98814
2018-12-03T20:13:37.000Z,98816
2018-12-03T20:14:37.000Z,98818
2018-12-03T20:16:22.000Z,98825
2018-12-03T20:17:37.000Z,98816
2018-12-03T20:18:37.000Z,98823
2018-12-03T20:20:37.000Z,98825
2018-12-03T20:22:37.000Z,98824
2018-12-03T20:24:06.000Z,98827
2018-12-03T20:25:37.000Z,98826
2018-12-03T20:27:22.000Z,98828
2018-12-03T20:28:37.000Z,98833
2018-12-03T20:30:22.000Z,98833
2018-12-03T20:31:37.000Z,98826
2018-12-03T20:33:37.000Z,98832
2018-12-03T20:35:22.000Z,98835
2018-12-03T20:36:37.000Z,98835
2018-12-03T20:38:38.000Z,98836
2018-12-03T20:39:38.000Z,98845
2018-12-03T20:41:38.000Z,98841
2018-12-03T20:43:38.000Z,98846
2018-12-03T20:45:38.000Z,98848
2018-12-03T20:47:38.000Z,98851
2018-12-03T20:49:38.000Z,98853
2018-12-03T20:50:38.000Z,98853
2018-12-03T20:52:38.000Z,98849
2018-12-03T20:53:38.000Z,98854
2018-12-03T20:55:38.000Z,98853
2018-12-03T20:56:38.000Z,98856
2018-12-03T20:58:38.000Z,98858
2018-12-03T20:59:38.000Z,98861
2018-12-03T21:00:38.000Z,98859
2018-12-03T21:02:38.000Z,98860
2018-12-03T21:04:38.000Z,98866
2018-12-03T21:06:38.000Z,98866
2018-12-03T21:08:38.000Z,98868
2018-12-03T21:09:38.000Z,98873
2018-12-03T21:11:38.000Z,98873
2018-12-03T21:13:38.000Z,98878
2018-12-03T21:15:38.000Z,98886
2018-12-03T21:17:07.000Z,98886
2018-12-03T21:18:38.000Z,98890
2018-12-03T21:20:23.000Z,98894
2018-12-03T21:21:38.000Z,98899
2018-12-03T21:22:38.000Z,98899
2018-12-03T21:24:38.000Z,98898
2018-12-03T21:25:38.000Z,98899
2018-12-03T21:27:38.000Z,98910
2018-12-03T21:28:38.000Z,98906
2018-12-03T21:30:38.000Z,98908
2018-12-03T21:32:38.000Z,98910
2018-12-03T21:33:38.000Z,98907
2018-12-03T21:35:07.000Z,98908
2018-12-03T21:36:38.000Z,98912
2018-12-03T21:37:38.000Z,98917
2018-12-03T21:39:38.000Z,98913
2018-12-03T21:41:38.000Z,98922
2018-12-03T21:43:38.000Z,98927
2018-12-03T21:45:38.000Z,98928